Verden, Oklahoma
Current Conditions -  °F | °C
As of 9:55 AM on Friday 28 Nov 2014 (Local Time) from KCHK Reporting Station
Clear Clear  
Wind Chill: 12°   Ceiling: Unl
Heat Index: 12°   Visibility: 10mi
Dew Point:   Wind: 15mph
Humidity: 54%   Direction: 200°SSW
Pressure: 30.08"   Gusts: 22mph
Location:  35.08°N, 98.09°W
Report Text: KCHK 281555Z AUTO 20013G19KT 10SM CLR 12/03 A3008 RMK AO2
Loading
Personal Weather Stations






























Interactive Weather Map New forecast layout! Learn more

10-Day Weather Forecast

Advertisements
Track Severe Weather on mobile